sensor_id;sensor_type;location;lat;lon;timestamp;temperature;humidity
4910;DHT22;2470;49.868;8.660;2024-03-25T00:01:20;8.10;99.90
4910;DHT22;2470;49.868;8.660;2024-03-25T00:03:46;8.10;99.90
4910;DHT22;2470;49.868;8.660;2024-03-25T00:06:11;8.10;99.90
4910;DHT22;2470;49.868;8.660;2024-03-25T00:08:37;8.10;99.90
4910;DHT22;2470;49.868;8.660;2024-03-25T00:11:02;8.00;99.90
4910;DHT22;2470;49.868;8.660;2024-03-25T00:13:28;8.00;99.90
4910;DHT22;2470;49.868;8.660;2024-03-25T00:15:53;8.10;99.90
4910;DHT22;2470;49.868;8.660;2024-03-25T00:18:19;8.00;99.90
4910;DHT22;2470;49.868;8.660;2024-03-25T00:20:44;8.00;99.90
4910;DHT22;2470;49.868;8.660;2024-03-25T00:23:10;8.00;99.90
4910;DHT22;2470;49.868;8.660;2024-03-25T00:25:37;8.00;99.90
4910;DHT22;2470;49.868;8.660;2024-03-25T00:28:02;8.00;99.90
4910;DHT22;2470;49.868;8.660;2024-03-25T00:30:29;7.90;99.90
4910;DHT22;2470;49.868;8.660;2024-03-25T00:32:55;7.90;99.90
4910;DHT22;2470;49.868;8.660;2024-03-25T00:35:20;7.90;99.90
4910;DHT22;2470;49.868;8.660;2024-03-25T00:37:46;7.90;99.90
4910;DHT22;2470;49.868;8.660;2024-03-25T00:40:11;7.90;99.90
4910;DHT22;2470;49.868;8.660;2024-03-25T00:42:37;7.90;99.90
4910;DHT22;2470;49.868;8.660;2024-03-25T00:45:03;7.90;99.90
4910;DHT22;2470;49.868;8.660;2024-03-25T00:47:31;7.90;99.90
4910;DHT22;2470;49.868;8.660;2024-03-25T00:49:57;7.90;99.90
4910;DHT22;2470;49.868;8.660;2024-03-25T00:52:22;7.90;99.90
4910;DHT22;2470;49.868;8.660;2024-03-25T00:54:48;7.80;99.90
4910;DHT22;2470;49.868;8.660;2024-03-25T00:57:13;7.80;99.90
4910;DHT22;2470;49.868;8.660;2024-03-25T00:59:39;7.80;99.90
4910;DHT22;2470;49.868;8.660;2024-03-25T01:02:05;7.80;99.90
4910;DHT22;2470;49.868;8.660;2024-03-25T01:04:30;7.80;99.90
4910;DHT22;2470;49.868;8.660;2024-03-25T01:06:56;7.80;99.90
4910;DHT22;2470;49.868;8.660;2024-03-25T01:09:21;7.80;99.90
4910;DHT22;2470;49.868;8.660;2024-03-25T01:11:47;7.80;99.90
4910;DHT22;2470;49.868;8.660;2024-03-25T01:14:13;7.80;99.90
4910;DHT22;2470;49.868;8.660;2024-03-25T01:16:38;7.80;99.90
4910;DHT22;2470;49.868;8.660;2024-03-25T01:19:04;7.70;99.90
4910;DHT22;2470;49.868;8.660;2024-03-25T01:21:29;7.70;99.90
4910;DHT22;2470;49.868;8.660;2024-03-25T01:23:55;7.70;99.90
4910;DHT22;2470;49.868;8.660;2024-03-25T01:26:21;7.70;99.90
4910;DHT22;2470;49.868;8.660;2024-03-25T01:28:47;7.70;99.90
4910;DHT22;2470;49.868;8.660;2024-03-25T01:31:13;7.70;99.90
4910;DHT22;2470;49.868;8.660;2024-03-25T01:33:39;7.70;99.90
4910;DHT22;2470;49.868;8.660;2024-03-25T01:36:05;7.70;99.90
4910;DHT22;2470;49.868;8.660;2024-03-25T01:38:31;7.60;99.90
4910;DHT22;2470;49.868;8.660;2024-03-25T01:41:07;7.60;99.90
4910;DHT22;2470;49.868;8.660;2024-03-25T01:43:33;7.60;99.90
4910;DHT22;2470;49.868;8.660;2024-03-25T01:45:58;7.60;99.90
4910;DHT22;2470;49.868;8.660;2024-03-25T01:48:24;7.60;99.90
4910;DHT22;2470;49.868;8.660;2024-03-25T01:50:49;7.60;99.90
4910;DHT22;2470;49.868;8.660;2024-03-25T01:53:15;7.60;99.90
4910;DHT22;2470;49.868;8.660;2024-03-25T01:55:42;7.60;99.90
4910;DHT22;2470;49.868;8.660;2024-03-25T01:58:26;7.60;99.90
4910;DHT22;2470;49.868;8.660;2024-03-25T02:00:53;7.60;99.90
4910;DHT22;2470;49.868;8.660;2024-03-25T02:03:20;7.60;99.90
4910;DHT22;2470;49.868;8.660;2024-03-25T02:05:45;7.60;99.90
4910;DHT22;2470;49.868;8.660;2024-03-25T02:08:11;7.60;99.90
4910;DHT22;2470;49.868;8.660;2024-03-25T02:10:38;7.60;99.90
4910;DHT22;2470;49.868;8.660;2024-03-25T02:13:03;7.60;99.90
4910;DHT22;2470;49.868;8.660;2024-03-25T02:15:29;7.60;99.90
4910;DHT22;2470;49.868;8.660;2024-03-25T02:17:55;7.60;99.90
4910;DHT22;2470;49.868;8.660;2024-03-25T02:20:20;7.60;99.90
4910;DHT22;2470;49.868;8.660;2024-03-25T02:22:46;7.50;99.90
4910;DHT22;2470;49.868;8.660;2024-03-25T02:25:14;7.50;99.90
4910;DHT22;2470;49.868;8.660;2024-03-25T02:27:39;7.50;99.90
4910;DHT22;2470;49.868;8.660;2024-03-25T02:30:08;7.50;99.90
4910;DHT22;2470;49.868;8.660;2024-03-25T02:32:35;7.50;99.90
4910;DHT22;2470;49.868;8.660;2024-03-25T02:35:03;7.50;99.90
4910;DHT22;2470;49.868;8.660;2024-03-25T02:37:29;7.50;99.90
4910;DHT22;2470;49.868;8.660;2024-03-25T02:39:57;7.60;99.90
4910;DHT22;2470;49.868;8.660;2024-03-25T02:42:27;7.50;99.90
4910;DHT22;2470;49.868;8.660;2024-03-25T02:44:54;7.50;99.90
4910;DHT22;2470;49.868;8.660;2024-03-25T02:47:20;7.50;99.90
4910;DHT22;2470;49.868;8.660;2024-03-25T02:49:46;7.50;99.90
4910;DHT22;2470;49.868;8.660;2024-03-25T02:52:12;7.50;99.90
4910;DHT22;2470;49.868;8.660;2024-03-25T02:54:37;7.40;99.90
4910;DHT22;2470;49.868;8.660;2024-03-25T02:57:03;7.40;99.90
4910;DHT22;2470;49.868;8.660;2024-03-25T02:59:28;7.40;99.90
4910;DHT22;2470;49.868;8.660;2024-03-25T03:01:54;7.40;99.90
4910;DHT22;2470;49.868;8.660;2024-03-25T03:04:19;7.40;99.90
4910;DHT22;2470;49.868;8.660;2024-03-25T03:06:45;7.30;99.90
4910;DHT22;2470;49.868;8.660;2024-03-25T03:09:10;7.30;99.90
4910;DHT22;2470;49.868;8.660;2024-03-25T03:11:36;7.30;99.90
4910;DHT22;2470;49.868;8.660;2024-03-25T03:14:01;7.30;99.90
4910;DHT22;2470;49.868;8.660;2024-03-25T03:16:27;7.40;99.90
4910;DHT22;2470;49.868;8.660;2024-03-25T03:18:52;7.40;99.90
4910;DHT22;2470;49.868;8.660;2024-03-25T03:21:18;7.40;99.90
4910;DHT22;2470;49.868;8.660;2024-03-25T03:23:43;7.40;99.90
4910;DHT22;2470;49.868;8.660;2024-03-25T03:26:09;7.40;99.90
4910;DHT22;2470;49.868;8.660;2024-03-25T03:28:34;7.40;99.90
4910;DHT22;2470;49.868;8.660;2024-03-25T03:31:00;7.40;99.90
4910;DHT22;2470;49.868;8.660;2024-03-25T03:33:25;7.40;99.90
4910;DHT22;2470;49.868;8.660;2024-03-25T03:35:52;7.40;99.90
4910;DHT22;2470;49.868;8.660;2024-03-25T03:38:17;7.30;99.90
4910;DHT22;2470;49.868;8.660;2024-03-25T03:40:55;7.30;99.90
4910;DHT22;2470;49.868;8.660;2024-03-25T03:43:20;7.40;99.90
4910;DHT22;2470;49.868;8.660;2024-03-25T03:45:46;7.20;99.90
4910;DHT22;2470;49.868;8.660;2024-03-25T03:48:11;7.10;99.90
4910;DHT22;2470;49.868;8.660;2024-03-25T03:50:36;7.10;99.90
4910;DHT22;2470;49.868;8.660;2024-03-25T03:53:02;7.10;99.90
4910;DHT22;2470;49.868;8.660;2024-03-25T03:55:27;7.00;99.90
4910;DHT22;2470;49.868;8.660;2024-03-25T03:57:53;7.00;99.90
4910;DHT22;2470;49.868;8.660;2024-03-25T04:00:18;7.00;99.90
4910;DHT22;2470;49.868;8.660;2024-03-25T04:02:44;7.00;99.90
4910;DHT22;2470;49.868;8.660;2024-03-25T04:05:09;7.00;99.90
4910;DHT22;2470;49.868;8.660;2024-03-25T04:07:35;7.00;99.90
4910;DHT22;2470;49.868;8.660;2024-03-25T04:10:00;7.00;99.90
4910;DHT22;2470;49.868;8.660;2024-03-25T04:12:26;6.90;99.90
4910;DHT22;2470;49.868;8.660;2024-03-25T04:14:51;6.90;99.90
4910;DHT22;2470;49.868;8.660;2024-03-25T04:17:21;6.80;99.90
4910;DHT22;2470;49.868;8.660;2024-03-25T04:19:48;6.80;99.90
4910;DHT22;2470;49.868;8.660;2024-03-25T04:22:13;6.80;99.90
4910;DHT22;2470;49.868;8.660;2024-03-25T04:24:39;6.90;99.90
4910;DHT22;2470;49.868;8.660;2024-03-25T04:27:04;6.90;99.90
4910;DHT22;2470;49.868;8.660;2024-03-25T04:29:30;6.80;99.90
4910;DHT22;2470;49.868;8.660;2024-03-25T04:31:55;6.80;99.90
4910;DHT22;2470;49.868;8.660;2024-03-25T04:34:21;6.80;99.90
4910;DHT22;2470;49.868;8.660;2024-03-25T04:36:48;6.80;99.90
4910;DHT22;2470;49.868;8.660;2024-03-25T04:39:14;6.80;99.90
4910;DHT22;2470;49.868;8.660;2024-03-25T04:41:39;6.80;99.90
4910;DHT22;2470;49.868;8.660;2024-03-25T04:44:06;6.80;99.90
4910;DHT22;2470;49.868;8.660;2024-03-25T04:46:31;6.70;99.90
4910;DHT22;2470;49.868;8.660;2024-03-25T04:48:57;6.70;99.90
4910;DHT22;2470;49.868;8.660;2024-03-25T04:51:22;6.70;99.90
4910;DHT22;2470;49.868;8.660;2024-03-25T04:53:48;6.70;99.90
4910;DHT22;2470;49.868;8.660;2024-03-25T04:56:14;6.70;99.90
4910;DHT22;2470;49.868;8.660;2024-03-25T04:58:39;6.60;99.90
4910;DHT22;2470;49.868;8.660;2024-03-25T05:01:04;6.60;99.90
4910;DHT22;2470;49.868;8.660;2024-03-25T05:03:30;6.50;99.90
4910;DHT22;2470;49.868;8.660;2024-03-25T05:05:55;6.50;99.90
4910;DHT22;2470;49.868;8.660;2024-03-25T05:08:22;6.40;99.90
4910;DHT22;2470;49.868;8.660;2024-03-25T05:10:47;6.40;99.90
4910;DHT22;2470;49.868;8.660;2024-03-25T05:13:12;6.40;99.90
4910;DHT22;2470;49.868;8.660;2024-03-25T05:15:38;6.40;99.90
4910;DHT22;2470;49.868;8.660;2024-03-25T05:18:04;6.40;99.90
4910;DHT22;2470;49.868;8.660;2024-03-25T05:20:29;6.40;99.90
4910;DHT22;2470;49.868;8.660;2024-03-25T05:22:55;6.40;99.90
4910;DHT22;2470;49.868;8.660;2024-03-25T05:25:20;6.50;99.90
4910;DHT22;2470;49.868;8.660;2024-03-25T05:27:50;6.40;99.90
4910;DHT22;2470;49.868;8.660;2024-03-25T05:30:15;6.40;99.90
4910;DHT22;2470;49.868;8.660;2024-03-25T05:32:41;6.40;99.90
4910;DHT22;2470;49.868;8.660;2024-03-25T05:35:06;6.30;99.90
4910;DHT22;2470;49.868;8.660;2024-03-25T05:37:32;6.30;99.90
4910;DHT22;2470;49.868;8.660;2024-03-25T05:39:59;6.30;99.90
4910;DHT22;2470;49.868;8.660;2024-03-25T05:42:24;6.20;99.90
4910;DHT22;2470;49.868;8.660;2024-03-25T05:44:50;6.20;99.90
4910;DHT22;2470;49.868;8.660;2024-03-25T05:47:15;6.30;99.90
4910;DHT22;2470;49.868;8.660;2024-03-25T05:49:41;6.20;99.90
4910;DHT22;2470;49.868;8.660;2024-03-25T05:52:06;6.30;99.90
4910;DHT22;2470;49.868;8.660;2024-03-25T05:54:32;6.30;99.90
4910;DHT22;2470;49.868;8.660;2024-03-25T05:56:58;6.40;99.90
4910;DHT22;2470;49.868;8.660;2024-03-25T05:59:23;6.40;99.90
4910;DHT22;2470;49.868;8.660;2024-03-25T06:01:48;6.40;99.90
4910;DHT22;2470;49.868;8.660;2024-03-25T06:04:14;6.30;99.90
4910;DHT22;2470;49.868;8.660;2024-03-25T06:06:39;6.40;99.90
4910;DHT22;2470;49.868;8.660;2024-03-25T06:09:05;6.40;99.90
4910;DHT22;2470;49.868;8.660;2024-03-25T06:11:31;6.30;99.90
4910;DHT22;2470;49.868;8.660;2024-03-25T06:13:56;6.30;99.90
4910;DHT22;2470;49.868;8.660;2024-03-25T06:16:22;6.40;99.90
4910;DHT22;2470;49.868;8.660;2024-03-25T06:18:47;6.50;99.90
4910;DHT22;2470;49.868;8.660;2024-03-25T06:21:12;6.60;99.90
4910;DHT22;2470;49.868;8.660;2024-03-25T06:23:38;6.70;99.90
4910;DHT22;2470;49.868;8.660;2024-03-25T06:26:04;6.70;99.90
4910;DHT22;2470;49.868;8.660;2024-03-25T06:28:29;6.80;99.90
4910;DHT22;2470;49.868;8.660;2024-03-25T06:30:55;6.80;99.90
4910;DHT22;2470;49.868;8.660;2024-03-25T06:33:39;6.80;99.90
4910;DHT22;2470;49.868;8.660;2024-03-25T06:36:25;6.70;99.90
4910;DHT22;2470;49.868;8.660;2024-03-25T06:38:50;6.80;99.90
4910;DHT22;2470;49.868;8.660;2024-03-25T06:41:15;6.80;99.90
4910;DHT22;2470;49.868;8.660;2024-03-25T06:43:41;6.90;99.90
4910;DHT22;2470;49.868;8.660;2024-03-25T06:46:07;6.90;99.90
4910;DHT22;2470;49.868;8.660;2024-03-25T06:48:35;6.90;99.90
4910;DHT22;2470;49.868;8.660;2024-03-25T06:51:02;7.00;99.90
4910;DHT22;2470;49.868;8.660;2024-03-25T06:53:30;7.10;99.90
4910;DHT22;2470;49.868;8.660;2024-03-25T06:55:57;7.20;99.90
4910;DHT22;2470;49.868;8.660;2024-03-25T06:58:24;7.10;99.90
4910;DHT22;2470;49.868;8.660;2024-03-25T07:00:50;7.20;99.90
4910;DHT22;2470;49.868;8.660;2024-03-25T07:03:17;7.20;99.90
4910;DHT22;2470;49.868;8.660;2024-03-25T07:05:46;7.30;99.90
4910;DHT22;2470;49.868;8.660;2024-03-25T07:08:12;7.40;99.90
4910;DHT22;2470;49.868;8.660;2024-03-25T07:10:38;7.40;99.90
4910;DHT22;2470;49.868;8.660;2024-03-25T07:13:04;7.40;99.90
4910;DHT22;2470;49.868;8.660;2024-03-25T07:15:31;7.50;99.90
4910;DHT22;2470;49.868;8.660;2024-03-25T07:17:56;7.50;99.90
4910;DHT22;2470;49.868;8.660;2024-03-25T07:20:22;7.60;99.90
4910;DHT22;2470;49.868;8.660;2024-03-25T07:22:48;7.60;99.90
4910;DHT22;2470;49.868;8.660;2024-03-25T07:25:13;7.60;99.90
4910;DHT22;2470;49.868;8.660;2024-03-25T07:27:40;7.70;99.90
4910;DHT22;2470;49.868;8.660;2024-03-25T07:30:06;7.60;99.90
4910;DHT22;2470;49.868;8.660;2024-03-25T07:32:33;7.60;99.90
4910;DHT22;2470;49.868;8.660;2024-03-25T07:34:59;7.80;99.90
4910;DHT22;2470;49.868;8.660;2024-03-25T07:37:25;7.70;99.90
4910;DHT22;2470;49.868;8.660;2024-03-25T07:39:50;7.70;99.90
4910;DHT22;2470;49.868;8.660;2024-03-25T07:42:16;7.80;99.90
4910;DHT22;2470;49.868;8.660;2024-03-25T07:44:42;7.80;99.90
4910;DHT22;2470;49.868;8.660;2024-03-25T07:47:07;7.80;99.90
4910;DHT22;2470;49.868;8.660;2024-03-25T07:49:33;7.80;99.90
4910;DHT22;2470;49.868;8.660;2024-03-25T07:52:02;7.80;99.90
4910;DHT22;2470;49.868;8.660;2024-03-25T07:54:28;7.90;99.90
4910;DHT22;2470;49.868;8.660;2024-03-25T07:56:54;8.00;99.90
4910;DHT22;2470;49.868;8.660;2024-03-25T07:59:19;8.10;99.90
4910;DHT22;2470;49.868;8.660;2024-03-25T08:01:45;8.20;99.90
4910;DHT22;2470;49.868;8.660;2024-03-25T08:04:11;8.20;99.90
4910;DHT22;2470;49.868;8.660;2024-03-25T08:06:37;8.20;99.90
4910;DHT22;2470;49.868;8.660;2024-03-25T08:09:02;8.20;99.90
4910;DHT22;2470;49.868;8.660;2024-03-25T08:11:31;8.20;99.90
4910;DHT22;2470;49.868;8.660;2024-03-25T08:13:57;8.20;99.90
4910;DHT22;2470;49.868;8.660;2024-03-25T08:16:22;8.20;99.90
4910;DHT22;2470;49.868;8.660;2024-03-25T08:18:48;8.20;99.90
4910;DHT22;2470;49.868;8.660;2024-03-25T08:21:13;8.20;99.90
4910;DHT22;2470;49.868;8.660;2024-03-25T08:23:39;8.20;99.90
4910;DHT22;2470;49.868;8.660;2024-03-25T08:26:06;8.30;99.90
4910;DHT22;2470;49.868;8.660;2024-03-25T08:28:32;8.30;99.90
4910;DHT22;2470;49.868;8.660;2024-03-25T08:30:58;8.30;99.90
4910;DHT22;2470;49.868;8.660;2024-03-25T08:33:23;8.40;99.90
4910;DHT22;2470;49.868;8.660;2024-03-25T08:35:49;8.50;99.90
4910;DHT22;2470;49.868;8.660;2024-03-25T08:38:14;8.60;99.90
4910;DHT22;2470;49.868;8.660;2024-03-25T08:40:40;8.70;99.90
4910;DHT22;2470;49.868;8.660;2024-03-25T08:43:06;8.70;99.90
4910;DHT22;2470;49.868;8.660;2024-03-25T08:45:32;8.70;99.90
4910;DHT22;2470;49.868;8.660;2024-03-25T08:47:57;8.80;99.90
4910;DHT22;2470;49.868;8.660;2024-03-25T08:50:23;8.70;99.90
4910;DHT22;2470;49.868;8.660;2024-03-25T08:52:49;8.70;99.90
4910;DHT22;2470;49.868;8.660;2024-03-25T08:55:14;8.70;99.90
4910;DHT22;2470;49.868;8.660;2024-03-25T08:57:40;8.80;99.90
4910;DHT22;2470;49.868;8.660;2024-03-25T09:00:06;8.90;99.90
4910;DHT22;2470;49.868;8.660;2024-03-25T09:02:35;9.00;99.90
4910;DHT22;2470;49.868;8.660;2024-03-25T09:05:01;9.20;99.90
4910;DHT22;2470;49.868;8.660;2024-03-25T09:07:33;9.20;99.90
4910;DHT22;2470;49.868;8.660;2024-03-25T09:09:59;9.20;99.90
4910;DHT22;2470;49.868;8.660;2024-03-25T09:12:43;9.10;99.90
4910;DHT22;2470;49.868;8.660;2024-03-25T09:15:08;9.10;99.90
4910;DHT22;2470;49.868;8.660;2024-03-25T09:17:35;9.20;99.90
4910;DHT22;2470;49.868;8.660;2024-03-25T09:20:01;9.20;99.90
4910;DHT22;2470;49.868;8.660;2024-03-25T09:22:29;9.30;99.90
4910;DHT22;2470;49.868;8.660;2024-03-25T09:24:55;9.30;99.90
4910;DHT22;2470;49.868;8.660;2024-03-25T09:27:20;9.40;99.90
4910;DHT22;2470;49.868;8.660;2024-03-25T09:29:46;9.40;99.90
4910;DHT22;2470;49.868;8.660;2024-03-25T09:32:11;9.50;99.90
4910;DHT22;2470;49.868;8.660;2024-03-25T09:34:38;9.60;99.90
4910;DHT22;2470;49.868;8.660;2024-03-25T09:37:03;9.70;99.90
4910;DHT22;2470;49.868;8.660;2024-03-25T09:39:29;9.80;99.70
4910;DHT22;2470;49.868;8.660;2024-03-25T09:41:55;9.90;99.60
4910;DHT22;2470;49.868;8.660;2024-03-25T09:44:25;10.00;98.80
4910;DHT22;2470;49.868;8.660;2024-03-25T09:46:51;10.20;98.20
4910;DHT22;2470;49.868;8.660;2024-03-25T09:49:17;10.20;97.70
4910;DHT22;2470;49.868;8.660;2024-03-25T09:51:44;10.30;97.80
4910;DHT22;2470;49.868;8.660;2024-03-25T09:54:09;10.30;97.10
4910;DHT22;2470;49.868;8.660;2024-03-25T09:56:36;10.30;96.50
4910;DHT22;2470;49.868;8.660;2024-03-25T09:59:02;10.30;96.50
4910;DHT22;2470;49.868;8.660;2024-03-25T10:01:29;10.20;97.00
4910;DHT22;2470;49.868;8.660;2024-03-25T10:03:55;10.30;96.90
4910;DHT22;2470;49.868;8.660;2024-03-25T10:06:20;10.40;97.00
4910;DHT22;2470;49.868;8.660;2024-03-25T10:09:09;10.70;97.40
4910;DHT22;2470;49.868;8.660;2024-03-25T10:11:35;10.90;97.20
4910;DHT22;2470;49.868;8.660;2024-03-25T10:14:01;10.90;93.40
4910;DHT22;2470;49.868;8.660;2024-03-25T10:16:27;10.80;91.50
4910;DHT22;2470;49.868;8.660;2024-03-25T10:18:54;10.80;91.90
4910;DHT22;2470;49.868;8.660;2024-03-25T10:21:20;10.80;91.50
4910;DHT22;2470;49.868;8.660;2024-03-25T10:23:47;10.90;90.50
4910;DHT22;2470;49.868;8.660;2024-03-25T10:26:30;10.90;90.10
4910;DHT22;2470;49.868;8.660;2024-03-25T10:29:00;11.10;89.50
4910;DHT22;2470;49.868;8.660;2024-03-25T10:31:26;11.10;89.00
4910;DHT22;2470;49.868;8.660;2024-03-25T10:33:52;11.00;89.20
4910;DHT22;2470;49.868;8.660;2024-03-25T10:36:19;11.10;89.00
4910;DHT22;2470;49.868;8.660;2024-03-25T10:38:46;11.10;88.30
4910;DHT22;2470;49.868;8.660;2024-03-25T10:41:14;11.20;90.30
4910;DHT22;2470;49.868;8.660;2024-03-25T10:43:44;11.20;87.50
4910;DHT22;2470;49.868;8.660;2024-03-25T10:46:13;11.20;87.60
4910;DHT22;2470;49.868;8.660;2024-03-25T10:48:43;11.40;87.80
4910;DHT22;2470;49.868;8.660;2024-03-25T10:51:09;11.80;87.00
4910;DHT22;2470;49.868;8.660;2024-03-25T10:53:36;11.90;83.80
4910;DHT22;2470;49.868;8.660;2024-03-25T10:56:03;11.80;82.80
4910;DHT22;2470;49.868;8.660;2024-03-25T10:58:31;11.80;83.50
4910;DHT22;2470;49.868;8.660;2024-03-25T11:00:58;11.80;85.00
4910;DHT22;2470;49.868;8.660;2024-03-25T11:03:26;11.90;83.90
4910;DHT22;2470;49.868;8.660;2024-03-25T11:05:52;11.90;83.10
4910;DHT22;2470;49.868;8.660;2024-03-25T11:08:17;12.00;84.90
4910;DHT22;2470;49.868;8.660;2024-03-25T11:10:44;12.20;85.80
4910;DHT22;2470;49.868;8.660;2024-03-25T11:13:19;12.50;86.50
4910;DHT22;2470;49.868;8.660;2024-03-25T11:15:47;12.60;84.40
4910;DHT22;2470;49.868;8.660;2024-03-25T11:18:13;12.60;84.10
4910;DHT22;2470;49.868;8.660;2024-03-25T11:20:39;12.50;83.10
4910;DHT22;2470;49.868;8.660;2024-03-25T11:23:12;12.50;82.70
4910;DHT22;2470;49.868;8.660;2024-03-25T11:25:39;12.40;82.20
4910;DHT22;2470;49.868;8.660;2024-03-25T11:28:05;12.50;83.10
4910;DHT22;2470;49.868;8.660;2024-03-25T11:30:30;12.70;81.60
4910;DHT22;2470;49.868;8.660;2024-03-25T11:32:57;12.70;81.10
4910;DHT22;2470;49.868;8.660;2024-03-25T11:35:23;12.70;81.30
4910;DHT22;2470;49.868;8.660;2024-03-25T11:37:49;12.80;80.80
4910;DHT22;2470;49.868;8.660;2024-03-25T11:40:18;12.90;82.00
4910;DHT22;2470;49.868;8.660;2024-03-25T11:42:45;12.80;80.10
4910;DHT22;2470;49.868;8.660;2024-03-25T11:45:15;12.80;79.10
4910;DHT22;2470;49.868;8.660;2024-03-25T11:47:45;12.90;77.80
4910;DHT22;2470;49.868;8.660;2024-03-25T11:50:16;13.10;79.60
4910;DHT22;2470;49.868;8.660;2024-03-25T11:52:41;13.30;79.60
4910;DHT22;2470;49.868;8.660;2024-03-25T11:55:08;13.60;80.40
4910;DHT22;2470;49.868;8.660;2024-03-25T11:57:37;13.80;82.20
4910;DHT22;2470;49.868;8.660;2024-03-25T12:00:03;14.10;81.90
4910;DHT22;2470;49.868;8.660;2024-03-25T12:02:31;14.20;80.20
4910;DHT22;2470;49.868;8.660;2024-03-25T12:04:56;14.50;80.50
4910;DHT22;2470;49.868;8.660;2024-03-25T12:07:22;14.60;79.80
4910;DHT22;2470;49.868;8.660;2024-03-25T12:09:47;14.60;79.20
4910;DHT22;2470;49.868;8.660;2024-03-25T12:12:32;14.60;78.80
4910;DHT22;2470;49.868;8.660;2024-03-25T12:14:58;14.70;79.60
4910;DHT22;2470;49.868;8.660;2024-03-25T12:17:24;14.90;80.40
4910;DHT22;2470;49.868;8.660;2024-03-25T12:20:03;15.10;79.70
4910;DHT22;2470;49.868;8.660;2024-03-25T12:22:31;15.20;77.50
4910;DHT22;2470;49.868;8.660;2024-03-25T12:24:58;15.40;77.80
4910;DHT22;2470;49.868;8.660;2024-03-25T12:27:24;15.60;77.00
4910;DHT22;2470;49.868;8.660;2024-03-25T12:30:06;16.10;76.70
4910;DHT22;2470;49.868;8.660;2024-03-25T12:35:01;17.30;71.90
4910;DHT22;2470;49.868;8.660;2024-03-25T12:37:27;17.80;70.60
4910;DHT22;2470;49.868;8.660;2024-03-25T12:39:52;18.50;65.40
4910;DHT22;2470;49.868;8.660;2024-03-25T12:42:18;18.90;61.60
4910;DHT22;2470;49.868;8.660;2024-03-25T12:44:45;19.70;60.40
4910;DHT22;2470;49.868;8.660;2024-03-25T12:47:10;20.40;58.60
4910;DHT22;2470;49.868;8.660;2024-03-25T12:49:36;21.40;59.00
4910;DHT22;2470;49.868;8.660;2024-03-25T12:52:05;22.20;54.10
4910;DHT22;2470;49.868;8.660;2024-03-25T12:54:30;22.70;49.30
4910;DHT22;2470;49.868;8.660;2024-03-25T12:56:56;23.20;50.70
4910;DHT22;2470;49.868;8.660;2024-03-25T12:59:21;24.00;49.90
4910;DHT22;2470;49.868;8.660;2024-03-25T13:01:47;25.10;48.10
4910;DHT22;2470;49.868;8.660;2024-03-25T13:04:12;26.30;44.60
4910;DHT22;2470;49.868;8.660;2024-03-25T13:06:38;27.10;40.30
4910;DHT22;2470;49.868;8.660;2024-03-25T13:09:03;27.90;38.50
4910;DHT22;2470;49.868;8.660;2024-03-25T13:11:29;29.10;34.50
4910;DHT22;2470;49.868;8.660;2024-03-25T13:13:54;30.10;33.30
4910;DHT22;2470;49.868;8.660;2024-03-25T13:16:21;31.00;32.80
4910;DHT22;2470;49.868;8.660;2024-03-25T13:18:46;31.80;30.10
4910;DHT22;2470;49.868;8.660;2024-03-25T13:21:11;32.20;29.10
4910;DHT22;2470;49.868;8.660;2024-03-25T13:23:37;32.70;28.90
4910;DHT22;2470;49.868;8.660;2024-03-25T13:26:03;32.80;28.00
4910;DHT22;2470;49.868;8.660;2024-03-25T13:28:29;33.00;27.50
4910;DHT22;2470;49.868;8.660;2024-03-25T13:30:54;34.40;27.90
4910;DHT22;2470;49.868;8.660;2024-03-25T13:33:19;35.20;26.70
4910;DHT22;2470;49.868;8.660;2024-03-25T13:35:45;35.90;25.50
4910;DHT22;2470;49.868;8.660;2024-03-25T13:38:11;37.30;24.40
4910;DHT22;2470;49.868;8.660;2024-03-25T13:40:36;37.90;23.80
4910;DHT22;2470;49.868;8.660;2024-03-25T13:43:02;37.80;23.50
4910;DHT22;2470;49.868;8.660;2024-03-25T13:45:27;38.40;23.30
4910;DHT22;2470;49.868;8.660;2024-03-25T13:47:53;39.50;23.40
4910;DHT22;2470;49.868;8.660;2024-03-25T13:50:18;39.50;22.40
4910;DHT22;2470;49.868;8.660;2024-03-25T13:52:47;39.60;21.90
4910;DHT22;2470;49.868;8.660;2024-03-25T13:55:13;40.10;21.00
4910;DHT22;2470;49.868;8.660;2024-03-25T13:57:38;39.90;20.70
4910;DHT22;2470;49.868;8.660;2024-03-25T14:00:04;40.00;20.20
4910;DHT22;2470;49.868;8.660;2024-03-25T14:02:35;39.70;20.50
4910;DHT22;2470;49.868;8.660;2024-03-25T14:05:02;39.60;20.50
4910;DHT22;2470;49.868;8.660;2024-03-25T14:07:28;40.00;21.20
4910;DHT22;2470;49.868;8.660;2024-03-25T14:09:54;40.70;20.60
4910;DHT22;2470;49.868;8.660;2024-03-25T14:12:20;40.70;20.60
4910;DHT22;2470;49.868;8.660;2024-03-25T14:14:45;40.60;19.20
4910;DHT22;2470;49.868;8.660;2024-03-25T14:17:11;39.90;19.80
4910;DHT22;2470;49.868;8.660;2024-03-25T14:19:36;40.20;19.90
4910;DHT22;2470;49.868;8.660;2024-03-25T14:22:02;40.40;20.00
4910;DHT22;2470;49.868;8.660;2024-03-25T14:24:27;40.00;19.60
4910;DHT22;2470;49.868;8.660;2024-03-25T14:26:53;38.90;20.10
4910;DHT22;2470;49.868;8.660;2024-03-25T14:29:19;38.00;19.80
4910;DHT22;2470;49.868;8.660;2024-03-25T14:31:44;36.20;20.20
4910;DHT22;2470;49.868;8.660;2024-03-25T14:34:10;33.60;21.10
4910;DHT22;2470;49.868;8.660;2024-03-25T14:36:35;31.50;22.00
4910;DHT22;2470;49.868;8.660;2024-03-25T14:39:01;29.90;22.80
4910;DHT22;2470;49.868;8.660;2024-03-25T14:41:26;29.10;23.70
4910;DHT22;2470;49.868;8.660;2024-03-25T14:43:52;28.40;23.80
4910;DHT22;2470;49.868;8.660;2024-03-25T14:46:17;27.10;24.70
4910;DHT22;2470;49.868;8.660;2024-03-25T14:48:43;26.20;25.00
4910;DHT22;2470;49.868;8.660;2024-03-25T14:51:09;25.70;25.40
4910;DHT22;2470;49.868;8.660;2024-03-25T14:53:35;24.80;25.70
4910;DHT22;2470;49.868;8.660;2024-03-25T14:56:00;23.90;26.80
4910;DHT22;2470;49.868;8.660;2024-03-25T14:58:26;23.10;27.30
4910;DHT22;2470;49.868;8.660;2024-03-25T15:00:52;22.40;28.50
4910;DHT22;2470;49.868;8.660;2024-03-25T15:03:17;21.70;28.50
4910;DHT22;2470;49.868;8.660;2024-03-25T15:05:43;21.10;29.80
4910;DHT22;2470;49.868;8.660;2024-03-25T15:08:08;20.70;30.00
4910;DHT22;2470;49.868;8.660;2024-03-25T15:10:34;20.20;30.00
4910;DHT22;2470;49.868;8.660;2024-03-25T15:13:00;20.40;30.70
4910;DHT22;2470;49.868;8.660;2024-03-25T15:15:27;20.80;31.20
4910;DHT22;2470;49.868;8.660;2024-03-25T15:18:01;20.90;30.00
4910;DHT22;2470;49.868;8.660;2024-03-25T15:20:27;20.40;29.70
4910;DHT22;2470;49.868;8.660;2024-03-25T15:22:52;20.00;30.50
4910;DHT22;2470;49.868;8.660;2024-03-25T15:25:18;20.20;30.90
4910;DHT22;2470;49.868;8.660;2024-03-25T15:27:44;20.40;30.40
4910;DHT22;2470;49.868;8.660;2024-03-25T15:30:10;20.40;30.30
4910;DHT22;2470;49.868;8.660;2024-03-25T15:32:36;20.60;30.20
4910;DHT22;2470;49.868;8.660;2024-03-25T15:35:01;20.50;30.60
4910;DHT22;2470;49.868;8.660;2024-03-25T15:37:27;20.30;31.10
4910;DHT22;2470;49.868;8.660;2024-03-25T15:39:53;20.40;30.90
4910;DHT22;2470;49.868;8.660;2024-03-25T15:42:18;21.00;31.70
4910;DHT22;2470;49.868;8.660;2024-03-25T15:44:45;21.00;30.40
4910;DHT22;2470;49.868;8.660;2024-03-25T15:47:13;20.40;30.60
4910;DHT22;2470;49.868;8.660;2024-03-25T15:49:38;20.20;31.00
4910;DHT22;2470;49.868;8.660;2024-03-25T15:52:07;20.00;31.30
4910;DHT22;2470;49.868;8.660;2024-03-25T15:54:32;20.40;32.10
4910;DHT22;2470;49.868;8.660;2024-03-25T15:56:58;21.20;31.60
4910;DHT22;2470;49.868;8.660;2024-03-25T15:59:24;21.40;30.60
4910;DHT22;2470;49.868;8.660;2024-03-25T16:01:49;21.10;30.10
4910;DHT22;2470;49.868;8.660;2024-03-25T16:04:14;20.70;30.70
4910;DHT22;2470;49.868;8.660;2024-03-25T16:06:40;20.20;31.10
4910;DHT22;2470;49.868;8.660;2024-03-25T16:09:05;20.00;30.90